sensor_id;sensor_type;location;lat;lon;timestamp;temperature;humidity
21676;DHT22;10999;51.332;9.458;2024-03-29T00:00:43;6.30;77.00
21676;DHT22;10999;51.332;9.458;2024-03-29T00:03:12;6.30;77.30
21676;DHT22;10999;51.332;9.458;2024-03-29T00:05:38;6.20;77.30
21676;DHT22;10999;51.332;9.458;2024-03-29T00:08:04;6.20;77.40
21676;DHT22;10999;51.332;9.458;2024-03-29T00:10:30;6.20;77.40
21676;DHT22;10999;51.332;9.458;2024-03-29T00:12:56;6.10;77.50
21676;DHT22;10999;51.332;9.458;2024-03-29T00:15:22;6.10;77.70
21676;DHT22;10999;51.332;9.458;2024-03-29T00:17:48;6.00;77.60
21676;DHT22;10999;51.332;9.458;2024-03-29T00:20:13;6.00;77.50
21676;DHT22;10999;51.332;9.458;2024-03-29T00:22:42;6.00;78.20
21676;DHT22;10999;51.332;9.458;2024-03-29T00:25:09;6.00;76.90
21676;DHT22;10999;51.332;9.458;2024-03-29T00:27:35;5.90;76.90
21676;DHT22;10999;51.332;9.458;2024-03-29T00:30:01;5.80;77.50
21676;DHT22;10999;51.332;9.458;2024-03-29T00:32:27;5.80;78.00
21676;DHT22;10999;51.332;9.458;2024-03-29T00:34:53;5.80;77.80
21676;DHT22;10999;51.332;9.458;2024-03-29T00:37:20;5.90;77.30
21676;DHT22;10999;51.332;9.458;2024-03-29T00:39:46;5.90;77.20
21676;DHT22;10999;51.332;9.458;2024-03-29T00:42:12;5.90;76.80
21676;DHT22;10999;51.332;9.458;2024-03-29T00:44:41;5.90;76.80
21676;DHT22;10999;51.332;9.458;2024-03-29T00:47:08;6.00;76.10
21676;DHT22;10999;51.332;9.458;2024-03-29T00:49:33;6.00;75.60
21676;DHT22;10999;51.332;9.458;2024-03-29T00:52:00;6.10;75.90
21676;DHT22;10999;51.332;9.458;2024-03-29T00:54:26;6.10;75.10
21676;DHT22;10999;51.332;9.458;2024-03-29T00:56:52;6.10;75.10
21676;DHT22;10999;51.332;9.458;2024-03-29T00:59:19;6.10;75.20
21676;DHT22;10999;51.332;9.458;2024-03-29T01:01:45;6.10;74.20
21676;DHT22;10999;51.332;9.458;2024-03-29T01:04:11;6.20;74.80
21676;DHT22;10999;51.332;9.458;2024-03-29T01:06:37;6.20;74.60
21676;DHT22;10999;51.332;9.458;2024-03-29T01:09:04;6.10;74.20
21676;DHT22;10999;51.332;9.458;2024-03-29T01:11:30;6.10;74.30
21676;DHT22;10999;51.332;9.458;2024-03-29T01:13:56;6.10;74.70
21676;DHT22;10999;51.332;9.458;2024-03-29T01:16:22;6.10;75.00
21676;DHT22;10999;51.332;9.458;2024-03-29T01:18:47;6.10;75.00
21676;DHT22;10999;51.332;9.458;2024-03-29T01:21:13;6.10;74.60
21676;DHT22;10999;51.332;9.458;2024-03-29T01:23:39;6.10;74.80
21676;DHT22;10999;51.332;9.458;2024-03-29T01:26:06;6.10;74.40
21676;DHT22;10999;51.332;9.458;2024-03-29T01:28:33;6.00;75.50
21676;DHT22;10999;51.332;9.458;2024-03-29T01:30:59;6.10;74.80
21676;DHT22;10999;51.332;9.458;2024-03-29T01:33:25;6.00;75.10
21676;DHT22;10999;51.332;9.458;2024-03-29T01:35:51;6.00;75.50
21676;DHT22;10999;51.332;9.458;2024-03-29T01:38:16;6.00;75.30
21676;DHT22;10999;51.332;9.458;2024-03-29T01:40:43;5.90;75.50
21676;DHT22;10999;51.332;9.458;2024-03-29T01:43:08;5.90;75.30
21676;DHT22;10999;51.332;9.458;2024-03-29T01:45:47;5.90;75.50
21676;DHT22;10999;51.332;9.458;2024-03-29T01:48:13;5.90;75.80
21676;DHT22;10999;51.332;9.458;2024-03-29T01:50:39;5.80;75.70
21676;DHT22;10999;51.332;9.458;2024-03-29T01:53:06;5.80;75.70
21676;DHT22;10999;51.332;9.458;2024-03-29T01:55:34;5.80;75.90
21676;DHT22;10999;51.332;9.458;2024-03-29T01:58:00;5.80;75.80
21676;DHT22;10999;51.332;9.458;2024-03-29T02:00:27;5.80;76.00
21676;DHT22;10999;51.332;9.458;2024-03-29T02:02:53;5.80;76.10
21676;DHT22;10999;51.332;9.458;2024-03-29T02:05:19;5.80;76.10
21676;DHT22;10999;51.332;9.458;2024-03-29T02:07:46;5.80;76.30
21676;DHT22;10999;51.332;9.458;2024-03-29T02:10:14;5.80;77.20
21676;DHT22;10999;51.332;9.458;2024-03-29T02:12:40;5.80;76.60
21676;DHT22;10999;51.332;9.458;2024-03-29T02:15:06;5.80;77.00
21676;DHT22;10999;51.332;9.458;2024-03-29T02:17:32;5.80;77.10
21676;DHT22;10999;51.332;9.458;2024-03-29T02:19:58;5.80;77.10
21676;DHT22;10999;51.332;9.458;2024-03-29T02:22:25;5.90;76.30
21676;DHT22;10999;51.332;9.458;2024-03-29T02:24:54;5.90;76.30
21676;DHT22;10999;51.332;9.458;2024-03-29T02:27:21;5.90;76.00
21676;DHT22;10999;51.332;9.458;2024-03-29T02:29:47;5.90;75.70
21676;DHT22;10999;51.332;9.458;2024-03-29T02:32:12;5.90;75.90
21676;DHT22;10999;51.332;9.458;2024-03-29T02:34:38;6.00;76.00
21676;DHT22;10999;51.332;9.458;2024-03-29T02:37:05;6.00;75.80
21676;DHT22;10999;51.332;9.458;2024-03-29T02:39:31;6.00;75.70
21676;DHT22;10999;51.332;9.458;2024-03-29T02:41:57;6.00;75.50
21676;DHT22;10999;51.332;9.458;2024-03-29T02:44:23;6.00;75.60
21676;DHT22;10999;51.332;9.458;2024-03-29T02:46:49;6.00;75.30
21676;DHT22;10999;51.332;9.458;2024-03-29T02:49:15;6.00;74.80
21676;DHT22;10999;51.332;9.458;2024-03-29T02:51:40;6.00;74.80
21676;DHT22;10999;51.332;9.458;2024-03-29T02:54:06;6.10;74.70
21676;DHT22;10999;51.332;9.458;2024-03-29T02:56:32;6.10;73.60
21676;DHT22;10999;51.332;9.458;2024-03-29T02:58:58;6.10;74.00
21676;DHT22;10999;51.332;9.458;2024-03-29T03:01:24;6.20;74.10
21676;DHT22;10999;51.332;9.458;2024-03-29T03:03:50;6.20;73.90
21676;DHT22;10999;51.332;9.458;2024-03-29T03:06:15;6.20;73.50
21676;DHT22;10999;51.332;9.458;2024-03-29T03:08:41;6.20;73.10
21676;DHT22;10999;51.332;9.458;2024-03-29T03:11:25;6.20;71.70
21676;DHT22;10999;51.332;9.458;2024-03-29T03:13:51;6.30;71.80
21676;DHT22;10999;51.332;9.458;2024-03-29T03:16:17;6.30;71.70
21676;DHT22;10999;51.332;9.458;2024-03-29T03:18:43;6.30;71.70
21676;DHT22;10999;51.332;9.458;2024-03-29T03:21:09;6.30;72.00
21676;DHT22;10999;51.332;9.458;2024-03-29T03:23:35;6.30;72.30
21676;DHT22;10999;51.332;9.458;2024-03-29T03:26:02;6.30;72.00
21676;DHT22;10999;51.332;9.458;2024-03-29T03:28:31;6.30;72.20
21676;DHT22;10999;51.332;9.458;2024-03-29T03:30:57;6.20;72.40
21676;DHT22;10999;51.332;9.458;2024-03-29T03:33:23;6.20;72.80
21676;DHT22;10999;51.332;9.458;2024-03-29T03:35:49;6.10;73.40
21676;DHT22;10999;51.332;9.458;2024-03-29T03:38:16;6.20;73.60
21676;DHT22;10999;51.332;9.458;2024-03-29T03:40:41;6.10;73.90
21676;DHT22;10999;51.332;9.458;2024-03-29T03:43:08;6.10;74.10
21676;DHT22;10999;51.332;9.458;2024-03-29T03:45:34;6.10;74.10
21676;DHT22;10999;51.332;9.458;2024-03-29T03:48:01;6.00;74.20
21676;DHT22;10999;51.332;9.458;2024-03-29T03:50:26;6.10;74.60
21676;DHT22;10999;51.332;9.458;2024-03-29T03:52:52;6.00;74.70
21676;DHT22;10999;51.332;9.458;2024-03-29T03:55:18;6.00;76.10
21676;DHT22;10999;51.332;9.458;2024-03-29T03:57:44;6.00;76.20
21676;DHT22;10999;51.332;9.458;2024-03-29T04:00:10;6.00;76.40
21676;DHT22;10999;51.332;9.458;2024-03-29T04:02:36;5.90;77.00
21676;DHT22;10999;51.332;9.458;2024-03-29T04:05:01;5.90;77.50
21676;DHT22;10999;51.332;9.458;2024-03-29T04:07:27;6.00;78.00
21676;DHT22;10999;51.332;9.458;2024-03-29T04:09:53;6.00;76.30
21676;DHT22;10999;51.332;9.458;2024-03-29T04:12:19;6.00;75.60
21676;DHT22;10999;51.332;9.458;2024-03-29T04:14:44;6.10;75.30
21676;DHT22;10999;51.332;9.458;2024-03-29T04:17:10;6.20;72.70
21676;DHT22;10999;51.332;9.458;2024-03-29T04:19:36;6.30;71.70
21676;DHT22;10999;51.332;9.458;2024-03-29T04:22:02;6.50;70.50
21676;DHT22;10999;51.332;9.458;2024-03-29T04:24:28;6.50;68.80
21676;DHT22;10999;51.332;9.458;2024-03-29T04:26:54;6.60;69.30
21676;DHT22;10999;51.332;9.458;2024-03-29T04:29:20;6.70;69.90
21676;DHT22;10999;51.332;9.458;2024-03-29T04:31:46;6.70;68.50
21676;DHT22;10999;51.332;9.458;2024-03-29T04:34:11;6.80;66.90
21676;DHT22;10999;51.332;9.458;2024-03-29T04:36:37;6.80;69.70
21676;DHT22;10999;51.332;9.458;2024-03-29T04:39:04;6.80;71.40
21676;DHT22;10999;51.332;9.458;2024-03-29T04:41:30;6.70;71.80
21676;DHT22;10999;51.332;9.458;2024-03-29T04:44:00;6.70;72.10
21676;DHT22;10999;51.332;9.458;2024-03-29T04:46:29;6.70;73.40
21676;DHT22;10999;51.332;9.458;2024-03-29T04:48:55;6.60;75.30
21676;DHT22;10999;51.332;9.458;2024-03-29T04:51:21;6.60;75.90
21676;DHT22;10999;51.332;9.458;2024-03-29T04:53:47;6.60;77.10
21676;DHT22;10999;51.332;9.458;2024-03-29T04:56:12;6.50;78.30
21676;DHT22;10999;51.332;9.458;2024-03-29T04:58:38;6.40;78.70
21676;DHT22;10999;51.332;9.458;2024-03-29T05:01:04;6.40;79.10
21676;DHT22;10999;51.332;9.458;2024-03-29T05:03:30;6.40;80.00
21676;DHT22;10999;51.332;9.458;2024-03-29T05:05:56;6.30;80.50
21676;DHT22;10999;51.332;9.458;2024-03-29T05:08:22;6.30;81.60
21676;DHT22;10999;51.332;9.458;2024-03-29T05:10:49;6.30;83.20
21676;DHT22;10999;51.332;9.458;2024-03-29T05:13:18;6.30;82.90
21676;DHT22;10999;51.332;9.458;2024-03-29T05:15:46;6.30;83.30
21676;DHT22;10999;51.332;9.458;2024-03-29T05:18:13;6.30;84.20
21676;DHT22;10999;51.332;9.458;2024-03-29T05:20:39;6.30;84.90
21676;DHT22;10999;51.332;9.458;2024-03-29T05:23:13;6.20;85.60
21676;DHT22;10999;51.332;9.458;2024-03-29T05:25:40;6.20;85.80
21676;DHT22;10999;51.332;9.458;2024-03-29T05:28:06;6.20;88.00
21676;DHT22;10999;51.332;9.458;2024-03-29T05:30:33;6.20;89.10
21676;DHT22;10999;51.332;9.458;2024-03-29T05:33:00;6.20;89.60
21676;DHT22;10999;51.332;9.458;2024-03-29T05:35:25;6.20;90.10
21676;DHT22;10999;51.332;9.458;2024-03-29T05:37:51;6.20;90.40
21676;DHT22;10999;51.332;9.458;2024-03-29T05:40:19;6.10;91.40
21676;DHT22;10999;51.332;9.458;2024-03-29T05:42:50;6.20;91.90
21676;DHT22;10999;51.332;9.458;2024-03-29T05:45:27;6.20;92.70
21676;DHT22;10999;51.332;9.458;2024-03-29T05:47:57;6.10;93.70
21676;DHT22;10999;51.332;9.458;2024-03-29T05:50:24;6.10;94.10
21676;DHT22;10999;51.332;9.458;2024-03-29T05:52:51;6.10;95.20
21676;DHT22;10999;51.332;9.458;2024-03-29T05:55:17;6.10;95.70
21676;DHT22;10999;51.332;9.458;2024-03-29T05:57:43;6.20;96.40
21676;DHT22;10999;51.332;9.458;2024-03-29T06:00:11;6.20;96.80
21676;DHT22;10999;51.332;9.458;2024-03-29T06:02:38;6.10;97.30
21676;DHT22;10999;51.332;9.458;2024-03-29T06:05:04;6.10;98.20
21676;DHT22;10999;51.332;9.458;2024-03-29T06:07:31;6.20;98.80
21676;DHT22;10999;51.332;9.458;2024-03-29T06:10:02;6.20;99.00
21676;DHT22;10999;51.332;9.458;2024-03-29T06:12:33;6.20;99.40
21676;DHT22;10999;51.332;9.458;2024-03-29T06:15:00;6.20;99.60
21676;DHT22;10999;51.332;9.458;2024-03-29T06:17:44;6.20;99.90
21676;DHT22;10999;51.332;9.458;2024-03-29T06:20:12;6.30;99.90
21676;DHT22;10999;51.332;9.458;2024-03-29T06:22:37;6.30;99.90
21676;DHT22;10999;51.332;9.458;2024-03-29T06:25:04;6.30;99.90
21676;DHT22;10999;51.332;9.458;2024-03-29T06:27:33;6.40;99.90
21676;DHT22;10999;51.332;9.458;2024-03-29T06:29:59;6.40;99.90
21676;DHT22;10999;51.332;9.458;2024-03-29T06:32:26;6.50;99.90
21676;DHT22;10999;51.332;9.458;2024-03-29T06:34:52;6.50;99.90
21676;DHT22;10999;51.332;9.458;2024-03-29T06:37:17;6.50;99.90
21676;DHT22;10999;51.332;9.458;2024-03-29T06:39:44;6.60;99.90
21676;DHT22;10999;51.332;9.458;2024-03-29T06:42:10;6.60;99.90
21676;DHT22;10999;51.332;9.458;2024-03-29T06:44:36;6.60;99.90
21676;DHT22;10999;51.332;9.458;2024-03-29T06:47:04;6.70;99.90
21676;DHT22;10999;51.332;9.458;2024-03-29T06:49:30;6.60;99.90
21676;DHT22;10999;51.332;9.458;2024-03-29T06:51:58;6.60;99.90
21676;DHT22;10999;51.332;9.458;2024-03-29T06:54:30;6.60;99.90
21676;DHT22;10999;51.332;9.458;2024-03-29T06:56:58;6.60;99.90
21676;DHT22;10999;51.332;9.458;2024-03-29T06:59:27;6.60;99.90
21676;DHT22;10999;51.332;9.458;2024-03-29T07:01:53;6.70;99.90
21676;DHT22;10999;51.332;9.458;2024-03-29T07:04:23;6.70;99.90
21676;DHT22;10999;51.332;9.458;2024-03-29T07:06:50;6.70;99.90
21676;DHT22;10999;51.332;9.458;2024-03-29T07:09:20;6.80;99.90
21676;DHT22;10999;51.332;9.458;2024-03-29T07:11:50;6.80;99.90
21676;DHT22;10999;51.332;9.458;2024-03-29T07:14:18;6.90;99.90
21676;DHT22;10999;51.332;9.458;2024-03-29T07:16:44;6.90;99.90
21676;DHT22;10999;51.332;9.458;2024-03-29T07:19:11;6.90;99.90
21676;DHT22;10999;51.332;9.458;2024-03-29T07:21:45;7.00;99.90
21676;DHT22;10999;51.332;9.458;2024-03-29T07:24:11;7.10;99.90
21676;DHT22;10999;51.332;9.458;2024-03-29T07:26:37;7.10;99.90
21676;DHT22;10999;51.332;9.458;2024-03-29T07:29:04;7.20;99.90
21676;DHT22;10999;51.332;9.458;2024-03-29T07:31:32;7.20;99.90
21676;DHT22;10999;51.332;9.458;2024-03-29T07:33:57;7.20;99.90
21676;DHT22;10999;51.332;9.458;2024-03-29T07:36:23;7.30;99.90
21676;DHT22;10999;51.332;9.458;2024-03-29T07:38:52;7.30;99.90
21676;DHT22;10999;51.332;9.458;2024-03-29T07:41:18;7.30;99.90
21676;DHT22;10999;51.332;9.458;2024-03-29T07:43:54;7.40;99.90
21676;DHT22;10999;51.332;9.458;2024-03-29T07:46:23;7.50;99.90
21676;DHT22;10999;51.332;9.458;2024-03-29T07:48:49;7.50;99.90
21676;DHT22;10999;51.332;9.458;2024-03-29T07:51:15;7.50;99.90
21676;DHT22;10999;51.332;9.458;2024-03-29T07:53:41;7.50;99.90
21676;DHT22;10999;51.332;9.458;2024-03-29T07:56:07;7.50;99.90
21676;DHT22;10999;51.332;9.458;2024-03-29T07:58:33;7.60;99.90
21676;DHT22;10999;51.332;9.458;2024-03-29T08:00:58;7.60;99.90
21676;DHT22;10999;51.332;9.458;2024-03-29T08:03:24;7.70;99.90
21676;DHT22;10999;51.332;9.458;2024-03-29T08:05:59;7.70;99.90
21676;DHT22;10999;51.332;9.458;2024-03-29T08:08:25;7.70;99.90
21676;DHT22;10999;51.332;9.458;2024-03-29T08:10:53;7.80;99.90
21676;DHT22;10999;51.332;9.458;2024-03-29T08:13:20;7.90;99.90
21676;DHT22;10999;51.332;9.458;2024-03-29T08:15:49;8.00;99.90
21676;DHT22;10999;51.332;9.458;2024-03-29T08:18:15;8.00;99.90
21676;DHT22;10999;51.332;9.458;2024-03-29T08:20:42;8.00;99.90
21676;DHT22;10999;51.332;9.458;2024-03-29T08:23:07;8.10;99.90
21676;DHT22;10999;51.332;9.458;2024-03-29T08:25:33;8.10;99.90
21676;DHT22;10999;51.332;9.458;2024-03-29T08:27:59;8.10;99.90
21676;DHT22;10999;51.332;9.458;2024-03-29T08:30:25;8.20;99.90
21676;DHT22;10999;51.332;9.458;2024-03-29T08:32:51;8.30;99.90
21676;DHT22;10999;51.332;9.458;2024-03-29T08:35:19;8.40;99.90
21676;DHT22;10999;51.332;9.458;2024-03-29T08:37:46;8.60;99.90
21676;DHT22;10999;51.332;9.458;2024-03-29T08:40:11;8.60;99.90
21676;DHT22;10999;51.332;9.458;2024-03-29T08:42:37;8.70;99.90
21676;DHT22;10999;51.332;9.458;2024-03-29T08:45:04;8.80;99.90
21676;DHT22;10999;51.332;9.458;2024-03-29T08:47:33;8.80;99.90
21676;DHT22;10999;51.332;9.458;2024-03-29T08:49:59;8.80;99.90
21676;DHT22;10999;51.332;9.458;2024-03-29T08:52:25;8.70;99.90
21676;DHT22;10999;51.332;9.458;2024-03-29T08:54:51;8.80;99.90
21676;DHT22;10999;51.332;9.458;2024-03-29T08:57:16;8.70;99.90
21676;DHT22;10999;51.332;9.458;2024-03-29T08:59:42;8.70;99.90
21676;DHT22;10999;51.332;9.458;2024-03-29T09:02:08;8.70;99.90
21676;DHT22;10999;51.332;9.458;2024-03-29T09:04:34;8.70;99.90
21676;DHT22;10999;51.332;9.458;2024-03-29T09:07:01;8.70;99.90
21676;DHT22;10999;51.332;9.458;2024-03-29T09:09:31;8.70;99.90
21676;DHT22;10999;51.332;9.458;2024-03-29T09:11:57;8.80;99.90
21676;DHT22;10999;51.332;9.458;2024-03-29T09:14:23;8.80;99.90
21676;DHT22;10999;51.332;9.458;2024-03-29T09:16:50;8.80;99.90
21676;DHT22;10999;51.332;9.458;2024-03-29T09:19:16;8.70;99.90
21676;DHT22;10999;51.332;9.458;2024-03-29T09:21:42;8.80;99.90
21676;DHT22;10999;51.332;9.458;2024-03-29T09:24:07;8.80;99.90
21676;DHT22;10999;51.332;9.458;2024-03-29T09:26:33;8.80;99.90
21676;DHT22;10999;51.332;9.458;2024-03-29T09:28:59;8.80;99.90
21676;DHT22;10999;51.332;9.458;2024-03-29T09:31:25;8.90;99.90
21676;DHT22;10999;51.332;9.458;2024-03-29T09:33:51;9.00;99.90
21676;DHT22;10999;51.332;9.458;2024-03-29T09:36:23;9.00;99.90
21676;DHT22;10999;51.332;9.458;2024-03-29T09:38:49;9.00;99.90
21676;DHT22;10999;51.332;9.458;2024-03-29T09:41:17;9.00;99.90
21676;DHT22;10999;51.332;9.458;2024-03-29T09:43:45;9.00;99.90
21676;DHT22;10999;51.332;9.458;2024-03-29T09:46:12;9.00;99.90
21676;DHT22;10999;51.332;9.458;2024-03-29T09:48:40;9.10;99.90
21676;DHT22;10999;51.332;9.458;2024-03-29T09:51:07;9.10;99.90
21676;DHT22;10999;51.332;9.458;2024-03-29T09:53:37;9.30;99.90
21676;DHT22;10999;51.332;9.458;2024-03-29T09:56:04;9.40;99.90
21676;DHT22;10999;51.332;9.458;2024-03-29T09:58:34;9.50;99.90
21676;DHT22;10999;51.332;9.458;2024-03-29T10:01:02;9.40;99.90
21676;DHT22;10999;51.332;9.458;2024-03-29T10:03:30;9.40;99.90
21676;DHT22;10999;51.332;9.458;2024-03-29T10:05:57;9.40;99.90
21676;DHT22;10999;51.332;9.458;2024-03-29T10:08:29;9.50;99.90
21676;DHT22;10999;51.332;9.458;2024-03-29T10:10:56;9.60;99.90
21676;DHT22;10999;51.332;9.458;2024-03-29T10:13:23;9.60;99.90
21676;DHT22;10999;51.332;9.458;2024-03-29T10:15:55;9.60;99.90
21676;DHT22;10999;51.332;9.458;2024-03-29T10:18:23;9.60;99.90
21676;DHT22;10999;51.332;9.458;2024-03-29T10:21:24;9.60;99.90
21676;DHT22;10999;51.332;9.458;2024-03-29T10:23:50;9.60;99.90
21676;DHT22;10999;51.332;9.458;2024-03-29T10:26:16;9.60;99.90
21676;DHT22;10999;51.332;9.458;2024-03-29T10:28:43;9.60;99.90
21676;DHT22;10999;51.332;9.458;2024-03-29T10:31:09;9.70;99.90
21676;DHT22;10999;51.332;9.458;2024-03-29T10:33:36;9.70;99.90
21676;DHT22;10999;51.332;9.458;2024-03-29T10:36:03;9.70;99.90
21676;DHT22;10999;51.332;9.458;2024-03-29T10:38:30;9.80;99.90
21676;DHT22;10999;51.332;9.458;2024-03-29T10:40:56;9.90;99.90
21676;DHT22;10999;51.332;9.458;2024-03-29T10:43:22;10.00;98.90
21676;DHT22;10999;51.332;9.458;2024-03-29T10:45:50;10.10;97.30
21676;DHT22;10999;51.332;9.458;2024-03-29T10:48:21;10.30;99.10
21676;DHT22;10999;51.332;9.458;2024-03-29T10:50:48;10.50;98.20
21676;DHT22;10999;51.332;9.458;2024-03-29T10:53:17;10.50;94.90
21676;DHT22;10999;51.332;9.458;2024-03-29T10:55:43;10.60;95.30
21676;DHT22;10999;51.332;9.458;2024-03-29T10:58:11;10.60;94.80
21676;DHT22;10999;51.332;9.458;2024-03-29T11:00:46;10.60;95.00
21676;DHT22;10999;51.332;9.458;2024-03-29T11:03:20;10.50;94.90
21676;DHT22;10999;51.332;9.458;2024-03-29T11:05:49;10.50;95.40
21676;DHT22;10999;51.332;9.458;2024-03-29T11:08:21;10.60;96.60
21676;DHT22;10999;51.332;9.458;2024-03-29T11:10:50;10.60;96.70
21676;DHT22;10999;51.332;9.458;2024-03-29T11:16:01;10.60;96.80
21676;DHT22;10999;51.332;9.458;2024-03-29T11:18:27;10.70;96.80
21676;DHT22;10999;51.332;9.458;2024-03-29T11:20:54;10.70;96.10
21676;DHT22;10999;51.332;9.458;2024-03-29T11:23:21;10.80;96.20
21676;DHT22;10999;51.332;9.458;2024-03-29T11:25:52;10.80;95.70
21676;DHT22;10999;51.332;9.458;2024-03-29T11:28:32;10.90;93.40
21676;DHT22;10999;51.332;9.458;2024-03-29T11:33:44;11.10;93.30
21676;DHT22;10999;51.332;9.458;2024-03-29T11:36:13;11.20;87.90
21676;DHT22;10999;51.332;9.458;2024-03-29T11:38:42;11.40;89.50
21676;DHT22;10999;51.332;9.458;2024-03-29T11:41:13;11.50;85.50
21676;DHT22;10999;51.332;9.458;2024-03-29T11:43:40;11.60;83.30
21676;DHT22;10999;51.332;9.458;2024-03-29T11:46:08;11.80;79.90
21676;DHT22;10999;51.332;9.458;2024-03-29T11:48:36;11.90;77.90
21676;DHT22;10999;51.332;9.458;2024-03-29T11:51:03;11.90;74.20
21676;DHT22;10999;51.332;9.458;2024-03-29T11:53:30;11.90;74.90
21676;DHT22;10999;51.332;9.458;2024-03-29T11:56:01;12.00;76.20
21676;DHT22;10999;51.332;9.458;2024-03-29T11:58:28;12.00;72.90
21676;DHT22;10999;51.332;9.458;2024-03-29T12:00:55;12.10;74.80
21676;DHT22;10999;51.332;9.458;2024-03-29T12:03:24;12.20;71.80
21676;DHT22;10999;51.332;9.458;2024-03-29T12:05:52;12.30;72.90
21676;DHT22;10999;51.332;9.458;2024-03-29T12:08:21;12.40;74.90
21676;DHT22;10999;51.332;9.458;2024-03-29T12:10:47;12.50;75.40
21676;DHT22;10999;51.332;9.458;2024-03-29T12:13:15;12.50;72.40
21676;DHT22;10999;51.332;9.458;2024-03-29T12:15:41;12.50;72.80
21676;DHT22;10999;51.332;9.458;2024-03-29T12:18:07;12.40;70.80
21676;DHT22;10999;51.332;9.458;2024-03-29T12:20:34;12.30;70.40
21676;DHT22;10999;51.332;9.458;2024-03-29T12:23:08;12.30;71.60
21676;DHT22;10999;51.332;9.458;2024-03-29T12:25:36;12.30;69.00
21676;DHT22;10999;51.332;9.458;2024-03-29T12:28:03;12.30;71.20
21676;DHT22;10999;51.332;9.458;2024-03-29T12:30:29;12.40;71.50
21676;DHT22;10999;51.332;9.458;2024-03-29T12:33:09;12.40;69.60
21676;DHT22;10999;51.332;9.458;2024-03-29T12:35:36;12.20;69.30
21676;DHT22;10999;51.332;9.458;2024-03-29T12:38:03;12.20;71.00
21676;DHT22;10999;51.332;9.458;2024-03-29T12:40:33;12.10;71.90
21676;DHT22;10999;51.332;9.458;2024-03-29T12:43:07;11.90;72.10
21676;DHT22;10999;51.332;9.458;2024-03-29T12:45:34;11.70;72.70
21676;DHT22;10999;51.332;9.458;2024-03-29T12:48:02;11.60;73.20
21676;DHT22;10999;51.332;9.458;2024-03-29T12:50:32;11.60;74.30
21676;DHT22;10999;51.332;9.458;2024-03-29T12:53:05;11.60;76.80
21676;DHT22;10999;51.332;9.458;2024-03-29T12:55:31;11.60;80.00
21676;DHT22;10999;51.332;9.458;2024-03-29T12:58:00;11.60;81.10
21676;DHT22;10999;51.332;9.458;2024-03-29T13:00:27;11.50;79.50
21676;DHT22;10999;51.332;9.458;2024-03-29T13:02:53;11.40;81.80
21676;DHT22;10999;51.332;9.458;2024-03-29T13:05:19;11.40;81.70
21676;DHT22;10999;51.332;9.458;2024-03-29T13:07:45;11.40;82.50
21676;DHT22;10999;51.332;9.458;2024-03-29T13:10:11;11.30;80.80
21676;DHT22;10999;51.332;9.458;2024-03-29T13:12:45;11.30;82.30
21676;DHT22;10999;51.332;9.458;2024-03-29T13:15:23;11.40;82.30
21676;DHT22;10999;51.332;9.458;2024-03-29T13:17:51;11.30;82.00
21676;DHT22;10999;51.332;9.458;2024-03-29T13:20:17;11.30;81.90
21676;DHT22;10999;51.332;9.458;2024-03-29T13:22:44;11.40;83.40
21676;DHT22;10999;51.332;9.458;2024-03-29T13:25:16;11.50;83.50
21676;DHT22;10999;51.332;9.458;2024-03-29T13:27:43;11.70;83.50
21676;DHT22;10999;51.332;9.458;2024-03-29T13:30:11;11.80;82.80
21676;DHT22;10999;51.332;9.458;2024-03-29T13:32:41;11.80;81.50
21676;DHT22;10999;51.332;9.458;2024-03-29T13:35:10;11.80;82.60
21676;DHT22;10999;51.332;9.458;2024-03-29T13:37:43;11.90;83.00
21676;DHT22;10999;51.332;9.458;2024-03-29T13:40:12;11.70;83.10
21676;DHT22;10999;51.332;9.458;2024-03-29T13:42:41;11.70;83.70
21676;DHT22;10999;51.332;9.458;2024-03-29T13:45:08;11.70;85.20
21676;DHT22;10999;51.332;9.458;2024-03-29T13:47:43;11.80;84.10
21676;DHT22;10999;51.332;9.458;2024-03-29T13:50:10;11.70;83.60
21676;DHT22;10999;51.332;9.458;2024-03-29T13:52:37;11.70;84.50
21676;DHT22;10999;51.332;9.458;2024-03-29T13:55:04;11.80;83.90
21676;DHT22;10999;51.332;9.458;2024-03-29T13:57:31;11.70;82.70
21676;DHT22;10999;51.332;9.458;2024-03-29T13:59:57;11.70;84.30
21676;DHT22;10999;51.332;9.458;2024-03-29T14:02:24;11.80;85.00
21676;DHT22;10999;51.332;9.458;2024-03-29T14:04:52;11.90;84.40
21676;DHT22;10999;51.332;9.458;2024-03-29T14:07:17;11.90;84.30
21676;DHT22;10999;51.332;9.458;2024-03-29T14:09:44;12.00;83.60
21676;DHT22;10999;51.332;9.458;2024-03-29T14:12:11;12.10;84.40
21676;DHT22;10999;51.332;9.458;2024-03-29T14:14:37;12.20;83.60
21676;DHT22;10999;51.332;9.458;2024-03-29T14:17:03;12.30;83.80
21676;DHT22;10999;51.332;9.458;2024-03-29T14:19:35;12.10;82.50
21676;DHT22;10999;51.332;9.458;2024-03-29T14:22:01;12.10;83.70
21676;DHT22;10999;51.332;9.458;2024-03-29T14:24:28;12.20;84.10
21676;DHT22;10999;51.332;9.458;2024-03-29T14:26:57;12.20;83.40
21676;DHT22;10999;51.332;9.458;2024-03-29T14:29:23;12.20;83.90
21676;DHT22;10999;51.332;9.458;2024-03-29T14:31:49;12.40;83.80
21676;DHT22;10999;51.332;9.458;2024-03-29T14:34:15;12.40;83.60
21676;DHT22;10999;51.332;9.458;2024-03-29T14:36:45;12.40;83.00
21676;DHT22;10999;51.332;9.458;2024-03-29T14:39:11;12.40;82.70
21676;DHT22;10999;51.332;9.458;2024-03-29T14:41:41;12.30;81.80
21676;DHT22;10999;51.332;9.458;2024-03-29T14:44:08;12.20;82.80
21676;DHT22;10999;51.332;9.458;2024-03-29T14:46:34;12.20;84.00
21676;DHT22;10999;51.332;9.458;2024-03-29T14:49:03;12.20;84.00
21676;DHT22;10999;51.332;9.458;2024-03-29T14:51:35;12.10;84.40
21676;DHT22;10999;51.332;9.458;2024-03-29T14:54:02;12.10;84.40
21676;DHT22;10999;51.332;9.458;2024-03-29T14:56:30;12.10;85.20
21676;DHT22;10999;51.332;9.458;2024-03-29T14:59:03;12.20;85.50
21676;DHT22;10999;51.332;9.458;2024-03-29T15:01:35;12.10;84.80
21676;DHT22;10999;51.332;9.458;2024-03-29T15:04:01;12.00;84.90
21676;DHT22;10999;51.332;9.458;2024-03-29T15:06:27;11.90;84.30
21676;DHT22;10999;51.332;9.458;2024-03-29T15:08:55;12.00;83.50
21676;DHT22;10999;51.332;9.458;2024-03-29T15:11:23;12.00;84.30
21676;DHT22;10999;51.332;9.458;2024-03-29T15:13:49;12.00;84.80
21676;DHT22;10999;51.332;9.458;2024-03-29T15:16:16;12.00;83.50
21676;DHT22;10999;51.332;9.458;2024-03-29T15:18:42;12.00;85.40
21676;DHT22;10999;51.332;9.458;2024-03-29T15:21:08;12.00;85.20
21676;DHT22;10999;51.332;9.458;2024-03-29T15:23:35;12.00;84.70
21676;DHT22;10999;51.332;9.458;2024-03-29T15:26:02;12.00;84.30
21676;DHT22;10999;51.332;9.458;2024-03-29T15:28:30;11.90;84.80
21676;DHT22;10999;51.332;9.458;2024-03-29T15:31:17;11.90;85.20
21676;DHT22;10999;51.332;9.458;2024-03-29T15:33:52;11.90;87.20
21676;DHT22;10999;51.332;9.458;2024-03-29T15:36:19;11.90;86.80
21676;DHT22;10999;51.332;9.458;2024-03-29T15:38:45;11.80;85.90
21676;DHT22;10999;51.332;9.458;2024-03-29T15:41:12;11.80;86.10
21676;DHT22;10999;51.332;9.458;2024-03-29T15:43:38;11.80;86.40
21676;DHT22;10999;51.332;9.458;2024-03-29T15:46:07;11.70;86.50
21676;DHT22;10999;51.332;9.458;2024-03-29T15:48:34;11.80;86.60